TimeEDT,TemperatureF,Dew PointF,Humidity,Sea Level PressureIn,VisibilityMPH,Wind Direction,Wind SpeedMPH,Gust SpeedMPH,PrecipitationIn,Events,Conditions,WindDirDegrees,DateUTC
12:53 AM,50.0,32.0,50,29.98,10.0,SW,33.4,48.3,N/A,,Overcast,230,2013-10-26 04:53:00
1:53 AM,50.0,32.0,50,29.97,10.0,WSW,28.8,43.7,N/A,,Overcast,240,2013-10-26 05:53:00
2:53 AM,50.0,33.1,52,29.94,10.0,SW,35.7,46.0,N/A,,Overcast,230,2013-10-26 06:53:00
3:53 AM,50.0,33.1,52,29.89,10.0,SW,31.1,46.0,N/A,,Overcast,230,2013-10-26 07:53:00
4:53 AM,50.0,34.0,54,29.86,10.0,SW,31.1,44.9,N/A,,Overcast,230,2013-10-26 08:53:00
5:53 AM,50.0,34.0,54,29.83,10.0,SW,28.8,44.9,N/A,,Overcast,230,2013-10-26 09:53:00
6:53 AM,51.1,34.0,52,29.82,10.0,WSW,28.8,40.3,N/A,,Overcast,240,2013-10-26 10:53:00
7:53 AM,48.9,35.1,59,29.81,10.0,WSW,27.6,41.4,N/A,,Overcast,240,2013-10-26 11:53:00
8:53 AM,50.0,35.1,57,29.81,10.0,WSW,26.5,34.5,N/A,,Overcast,250,2013-10-26 12:53:00
9:53 AM,50.0,37.0,61,29.80,10.0,WSW,21.9,31.1,N/A,,Overcast,250,2013-10-26 13:53:00
10:53 AM,50.0,37.0,61,29.79,10.0,West,18.4,28.8,N/A,,Overcast,260,2013-10-26 14:53:00
11:53 AM,50.0,37.9,63,29.74,10.0,West,17.3,23.0,N/A,,Overcast,270,2013-10-26 15:53:00
12:53 PM,51.1,39.0,63,29.74,10.0,West,11.5,20.7,N/A,,Overcast,280,2013-10-26 16:53:00
1:00 PM,51.8,39.2,62,29.79,10.0,WNW,17.3,25.3,N/A,,Overcast,290,2013-10-26 17:00:00
1:34 PM,51.8,39.2,62,29.80,10.0,WNW,12.7,21.9,N/A,,Overcast,300,2013-10-26 17:34:00
1:53 PM,51.1,39.0,63,29.75,10.0,NW,17.3,23.0,N/A,,Overcast,320,2013-10-26 17:53:00
2:53 PM,51.1,37.9,61,29.77,10.0,NW,13.8,24.2,N/A,,Overcast,310,2013-10-26 18:53:00
3:53 PM,50.0,34.0,54,29.88,10.0,NW,16.1,26.5,N/A,,Mostly Cloudy,320,2013-10-26 19:53:00
4:53 PM,48.9,34.0,56,29.90,10.0,NW,15.0,21.9,N/A,,Overcast,310,2013-10-26 20:53:00
5:53 PM,48.9,32.0,52,29.93,10.0,NW,8.1,18.4,N/A,,Overcast,310,2013-10-26 21:53:00
6:53 PM,48.0,32.0,54,29.95,10.0,NW,8.1,18.4,N/A,,Overcast,320,2013-10-26 22:53:00
7:53 PM,46.0,33.1,61,29.98,10.0,NNW,8.1,-,N/A,,Mostly Cloudy,330,2013-10-26 23:53:00
8:53 PM,46.9,30.9,54,30.00,10.0,NW,5.8,-,N/A,,Mostly Cloudy,320,2013-10-27 00:53:00
9:53 PM,46.9,32.0,56,30.02,10.0,NNW,10.4,-,N/A,,Overcast,330,2013-10-27 01:53:00
10:53 PM,46.9,30.9,54,30.03,10.0,NNW,6.9,16.1,N/A,,Mostly Cloudy,340,2013-10-27 02:53:00
11:53 PM,45.0,28.9,53,30.04,10.0,NW,6.9,-,N/A,,Scattered Clouds,320,2013-10-27 03:53:00